Airport View

Enter AWOS ICAO identifier for current METAR.

ex. KFNL

KCWV 011315Z AUTO 00000KT 10SM CLR 16/14 A3006 RMK AO2 T01630140

1 Oct 2020 13:24

Frequency: 120.075

Phone: 912-739-3768

Other Area AWOS: KTBR - KLHW - KVDI - KJYL

TAF KSAV 011120Z 0112/0212 VRB03KT P6SM SKC FM011500 28005KT P6SM SKC FM012100 19007KT P6SM SKC FM020900 31006KT P6SM FEW200